NQ2U Weather Reports


Display with metric or nautical units.
time (UTC)temp
F
wind
direction
speed
MPH
gust
MPH
rain 1hr
in
rain 24hr
in
rain mn
in
humidity
%
barometer
mb
20210920031531 79 309 0.0 0.0 0.00 0.08 0.08 87 1016.7
20210920030048 79 309 0.0 0.0 0.00 0.08 0.08 87 1016.7
20210920024542 79 309 0.0 0.0 0.00 0.08 0.08 88 1016.8
20210920023031 79 309 0.0 0.0 0.00 0.08 0.08 87 1016.8
20210920021532 79 309 0.0 0.0 0.00 0.08 0.08 88 1016.7
20210920020052 79 309 0.0 0.0 0.00 0.08 0.08 88 1016.7
20210920014524 79 309 0.0 0.0 0.00 0.08 0.08 88 1016.6
20210920013025 79 309 0.0 0.0 0.00 0.08 0.08 88 1016.4
20210920011521 79 309 0.0 0.0 0.00 0.08 0.08 87 1016.3
20210920010026 79 309 0.0 0.0 0.00 0.08 0.08 88 1016.1
20210920004534 78 309 0.0 0.0 0.00 0.20 0.08 89 1016.0
20210920003047 78 303 0.0 0.0 0.00 0.20 0.08 90 1015.9
20210920001522 77 307 0.0 0.0 0.00 0.20 0.08 90 1015.8
20210920000017 77 316 0.0 0.0 0.00 0.20 0.08 90 1015.6
20210919234516 77 307 0.0 0.0 0.00 0.23 0.08 89 1015.6
20210919233028 78 306 0.0 0.0 0.00 0.23 0.08 86 1015.6
20210919231549 80 291 0.0 0.0 0.00 0.23 0.08 84 1015.5
20210919230026 82 264 0.0 0.0 0.00 0.23 0.08 80 1015.5
20210919224542 85 115 0.0 0.0 0.00 0.23 0.08 77 1015.1
20210919223013 85 109 0.0 0.0 0.00 0.23 0.08 77 1015.0
20210919221549 86 127 0.0 0.0 0.00 0.23 0.08 77 1014.7
20210919220034 86 151 0.0 0.0 0.00 0.23 0.08 77 1014.8
20210919214515 86 122 0.0 0.0 0.00 0.23 0.08 77 1014.7
20210919213011 87 98 0.0 0.0 0.00 0.23 0.08 75 1014.6
20210919211535 88 96 0.0 0.0 0.00 0.23 0.08 73 1014.6
20210919210011 88 129 0.0 0.0 0.00 0.23 0.08 75 1014.4
20210919204512 88 96 0.0 0.0 0.00 0.23 0.08 74 1014.3
20210919203010 89 105 0.0 0.0 0.00 0.23 0.08 75 1014.6
20210919201536 88 212 0.0 0.0 0.03 0.23 0.08 76 1014.9
20210919200036 87 283 0.0 0.0 0.08 0.23 0.08 78 1014.9
20210919194509 85 129 0.0 0.0 0.08 0.23 0.08 79 1014.8
20210919193002 85 114 0.0 0.0 0.08 0.23 0.08 82 1014.9
20210919191628 87 94 0.0 0.0 0.05 0.20 0.05 76 1015.3
20210919190126 88 134 0.0 0.0 0.00 0.15 0.00 69 1015.2
20210919184710 92 122 0.0 0.0 0.00 0.15 0.00 60 1015.2
20210919183122 91 193 0.0 0.0 0.00 0.15 0.00 61 1015.4
20210919181701 90 122 0.0 0.0 0.00 0.15 0.00 60 1015.7
20210919180133 90 314 0.0 0.0 0.00 0.15 0.00 62 1015.6
20210919174624 90 300 0.0 0.0 0.00 0.15 0.00 65 1016.0
20210919173125 91 314 0.0 0.0 0.00 0.15 0.00 63 1016.4
20210919171621 90 305 0.0 0.0 0.00 0.15 0.00 63 1016.5
20210919170204 90 299 0.0 0.0 0.00 0.15 0.00 63 1016.7
20210919164625 88 295 0.0 0.0 0.00 0.15 0.00 66 1017.0
20210919163146 88 300 0.0 0.0 0.00 0.15 0.00 67 1017.1
20210919161652 90 309 0.0 0.0 0.00 0.15 0.00 65 1017.2
20210919160047 89 325 0.0 0.0 0.00 0.15 0.00 69 1017.3
20210919154611 88 309 0.0 0.0 0.00 0.15 0.00 68 1017.4
20210919153353 88 330 0.0 0.0 0.00 0.15 0.00 70 1017.5
20210919151702 88 302 0.0 0.0 0.00 0.15 0.00 69 1017.7
20210919150132 86 278 0.0 0.0 0.00 0.15 0.00 75 1017.7
20210919144545 85 256 0.0 0.0 0.00 0.15 0.00 75 1017.5
20210919143044 85 307 0.0 0.0 0.00 0.15 0.00 76 1017.4
20210919141547 84 302 0.0 0.0 0.00 0.15 0.00 78 1017.3
20210919140026 84 312 0.0 0.0 0.00 0.15 0.00 80 1017.3
20210919134544 83 297 0.0 0.0 0.00 0.15 0.00 83 1017.3
20210919133026 82 300 0.0 0.0 0.00 0.15 0.00 87 1017.2
20210919131527 81 312 0.0 0.0 0.00 0.15 0.00 89 1017.3
20210919130015 80 299 0.0 0.0 0.00 0.15 0.00 89 1017.2
20210919124523 80 302 0.0 0.0 0.00 0.15 0.00 91 1017.0
20210919123009 79 305 0.0 0.0 0.00 0.15 0.00 92 1016.9
20210919121506 78 305 0.0 0.0 0.00 0.15 0.00 93 1016.8
20210919120005 78 303 0.0 0.0 0.00 0.15 0.00 94 1016.9
20210919114502 0 0.0 0.0 0.00 0.15 0.00 1016.8
20210919113218 0 0.0 0.0 0.00 0.15 0.00 1016.8
20210919111804 0 0.0 0.0 0.00 0.15 0.00 1016.8
20210919110105 0 0.0 0.0 0.00 0.15 0.00 1016.9
20210919104618 0 0.0 0.0 0.00 0.15 0.00 1016.7
20210919103121 0 0.0 0.0 0.00 0.15 0.00 1016.6
20210919101628 0 0.0 0.0 0.00 0.15 0.00 1016.5
20210919100037 0 0.0 0.0 0.00 0.15 0.00 1016.4
20210919094548 0 0.0 0.0 0.00 0.15 0.00 1016.4
20210919093031 0 0.0 0.0 0.00 0.15 0.00 1016.2
20210919091543 0 0.0 0.0 0.00 0.15 0.00 1016.1
20210919090019 0 0.0 0.0 0.00 0.15 0.00 1015.9
20210919084516 0 0.0 0.0 0.00 0.15 0.00 1015.8
20210919083006 0 0.0 0.0 0.00 0.15 0.00 1015.9
20210919081502 0 0.0 0.0 0.00 0.15 0.00 1016.0
20210919080121 0 0.0 0.0 0.00 0.15 0.00 1016.2
20210919074613 0 0.0 0.0 0.00 0.15 0.00 1016.2
20210919073148 0 0.0 0.0 0.00 0.15 0.00 1016.3
20210919071612 0 0.0 0.0 0.00 0.15 0.00 1016.4
20210919070109 0 0.0 0.0 0.00 0.15 0.00 1016.5
20210919064656 0 0.0 0.0 0.00 0.15 0.00 1016.5
20210919063101 79 337 0.0 0.0 0.00 0.15 0.00 96 1016.7
20210919061610 79 337 0.0 0.0 0.00 0.15 0.00 93 1016.8
20210919060035 79 337 0.0 0.0 0.00 0.15 0.00 93 1016.9
20210919054526 79 337 0.0 0.0 0.00 0.15 0.00 93 1017.0
20210919053035 79 337 0.0 0.0 0.00 0.15 0.00 93 1017.1
20210919051608 79 337 0.0 0.0 0.00 0.15 0.00 93 1017.1
20210919050024 79 337 0.0 0.0 0.00 0.15 0.00 93 1017.1
20210919044533 79 337 0.0 0.0 0.00 0.16 0.00 93 1017.3
20210919043034 79 337 0.0 0.0 0.00 0.16 0.00 93 1017.4
20210919041515 79 337 0.0 0.0 0.00 0.16 0.00 93 1017.4
20210919040015 79 337 0.0 0.0 0.00 0.16 0.00 93 1017.4
20210919034512 79 337 0.0 0.0 0.00 0.16 0.16 92 1017.5
20210919033017 79 337 0.0 0.0 0.00 0.16 0.16 93 1017.4